Limpio, sin nubes
Limpio, sin nubes
Limpio, con algunas nubes bajas
Parcialmente nublado
Mayormente nublado
Nublado
Nublado
(°C)
11°
12°
12°
13°
14°
14°
13°
(°C)
NNO
NNO
NNO
NNO
NNO
NNO
NO
(km/h)
18-26
18-29
15-32
12-33
9-29
9-24
9-24
(mm)
0
0
0
0
0
0
0
(%)
0
0
0
0
0
0
0

Elevación del sol

/ 26.3°
sun-icon
UV 2
08:12
18:23
Creciente (76°)
11:42
24:00

METAR a Alcantarilla (LERI)

Hora Condiciones Temperatura/
Punto de condensación
Viento Visibilidad Tiempo Nubes Presión Cambiar Bruto
VFR 10°C / -3°C variable 3kt >10km - Clouds and Visibility OK 1015 No Significant change LERI 271000Z VRB03KT CAVOK 10/M03 Q1015 NOSIG
VFR 9°C / -3°C variable 1kt >10km - Clouds and Visibility OK 1015 No Significant change LERI 270930Z VRB01KT CAVOK 09/M03 Q1015 NOSIG
VFR 8°C / -3°C variable 1kt >10km - Clouds and Visibility OK 1015 No Significant change LERI 270900Z VRB01KT CAVOK 08/M03 Q1015 NOSIG
VFR 5°C / -2°C variable 1kt >10km - Clouds and Visibility OK 1015 No Significant change LERI 270830Z VRB01KT CAVOK 05/M02 Q1015 NOSIG
VFR 3°C / -2°C variable 0kt >10km - Clouds and Visibility OK 1015 No Significant change LERI 270800Z 00000KT CAVOK 03/M02 Q1015 NOSIG
VFR 2°C / -3°C variable 1kt >10km - Clouds and Visibility OK 1014 No Significant change LERI 270730Z VRB01KT CAVOK 02/M03 Q1014 NOSIG
VFR 0°C / -4°C 10º variable 320º to 070º 3kt >10km - Clouds and Visibility OK 1014 No Significant change LERI 270700Z 01003KT 320V070 CAVOK 00/M04 Q1014 NOSIG
VFR 3°C / -3°C 270º 5kt >10km - Clouds and Visibility OK 1014 No Significant change LERI 270630Z 27005KT CAVOK 03/M03 Q1014 NOSIG
VFR 1°C / -3°C 230º 4kt >10km - Clouds and Visibility OK 1014 No Significant change LERI 270600Z 23004KT CAVOK 01/M03 Q1014 NOSIG
VFR 10°C / -1°C 290º variable 270º to 330º 10kt >10km - Clouds and Visibility OK 1015 No Significant change LERI 261800Z 29010KT 270V330 CAVOK 10/M01 Q1015 NOSIG
VFR 11°C / -2°C 290º 11kt >10km - Few Clouds 6200ft 1015 No Significant change LERI 261730Z 29011KT 9999 FEW062 11/M02 Q1015 NOSIG
VFR 12°C / -2°C 300º variable 260º to 330º 12kt >10km - Scattered Clouds 5300ft 1015 No Significant change LERI 261700Z 30012KT 260V330 9999 SCT053 12/M02 Q1015 NOSIG
VFR 13°C / -2°C 290º variable 250º to 340º 12kt >10km - Scattered Clouds 6100ft 1015 No Significant change LERI 261630Z 29012KT 250V340 9999 SCT061 13/M02 Q1015 NOSIG
VFR 13°C / -2°C 330º variable 300º to 360º 10kt >10km - Scattered Clouds 5500ft 1015 No Significant change LERI 261600Z 33010KT 300V360 9999 SCT055 13/M02 Q1015 NOSIG
VFR 13°C / -2°C 290º variable 250º to 330º 13kt >10km - Scattered Clouds 5600ft 1015 No Significant change LERI 261530Z 29013KT 250V330 9999 SCT056 13/M02 Q1015 NOSIG
VFR 13°C / -2°C 280º variable 250º to 310º 15kt >10km - Scattered Clouds 5500ft 1015 No Significant change LERI 261500Z 28015KT 250V310 9999 SCT055 13/M02 Q1015 NOSIG
VFR 13°C / -2°C 290º variable 260º to 330º 12kt >10km - Scattered Clouds 5400ft 1015 No Significant change LERI 261430Z 29012KT 260V330 9999 SCT054 13/M02 Q1015 NOSIG
VFR 13°C / -2°C 330º variable 280º to 020º 8kt >10km - Scattered Clouds 5200ft 1015 No Significant change LERI 261400Z 33008KT 280V020 9999 SCT052 13/M02 Q1015 NOSIG
VFR 12°C / -2°C 290º variable 240º to 330º 14kt >10km - Few Clouds 4800ft
Scattered Clouds 5800ft
1015 No Significant change LERI 261330Z 29014KT 240V330 9999 FEW048 SCT058 12/M02 Q1015 NOSIG
VFR 12°C / -2°C 340º variable 300º to 030º 8kt >10km - Few Clouds 4800ft
Scattered Clouds 5700ft
1016 No Significant change LERI 261300Z 34008KT 300V030 9999 FEW048 SCT057 12/M02 Q1016 NOSIG
VFR 12°C / -2°C 320º variable 260º to 350º 12kt >10km - Few Clouds 4500ft
Scattered Clouds 5700ft
1016 No Significant change LERI 261230Z 32012KT 260V350 9999 FEW045 SCT057 12/M02 Q1016 NOSIG
VFR 12°C / -2°C 310º variable 280º to 340º 12kt >10km - Few Clouds 4500ft 1016 No Significant change LERI 261200Z 31012KT 280V340 9999 FEW045 12/M02 Q1016 NOSIG
VFR 12°C / -2°C 320º variable 280º to 350º 9kt >10km - Clouds and Visibility OK 1017 No Significant change LERI 261130Z 32009KT 280V350 CAVOK 12/M02 Q1017 NOSIG
VFR 12°C / -2°C 310º variable 280º to 340º 11kt >10km - Clouds and Visibility OK 1018 No Significant change LERI 261100Z 31011KT 280V340 CAVOK 12/M02 Q1018 NOSIG

VFR

10°C / -3°C

[Más]
Viento variable 3kt
Visibilidad >10km
Tiempo -
Nubes Clouds and Visibility OK
Presión 1015
Cambiar No Significant change
Bruto LERI 271000Z VRB03KT CAVOK 10/M03 Q1015 NOSIG

VFR

9°C / -3°C

[Más]
Viento variable 1kt
Visibilidad >10km
Tiempo -
Nubes Clouds and Visibility OK
Presión 1015
Cambiar No Significant change
Bruto LERI 270930Z VRB01KT CAVOK 09/M03 Q1015 NOSIG

VFR

8°C / -3°C

[Más]
Viento variable 1kt
Visibilidad >10km
Tiempo -
Nubes Clouds and Visibility OK
Presión 1015
Cambiar No Significant change
Bruto LERI 270900Z VRB01KT CAVOK 08/M03 Q1015 NOSIG

VFR

5°C / -2°C

[Más]
Viento variable 1kt
Visibilidad >10km
Tiempo -
Nubes Clouds and Visibility OK
Presión 1015
Cambiar No Significant change
Bruto LERI 270830Z VRB01KT CAVOK 05/M02 Q1015 NOSIG

VFR

3°C / -2°C

[Más]
Viento variable 0kt
Visibilidad >10km
Tiempo -
Nubes Clouds and Visibility OK
Presión 1015
Cambiar No Significant change
Bruto LERI 270800Z 00000KT CAVOK 03/M02 Q1015 NOSIG

VFR

2°C / -3°C

[Más]
Viento variable 1kt
Visibilidad >10km
Tiempo -
Nubes Clouds and Visibility OK
Presión 1014
Cambiar No Significant change
Bruto LERI 270730Z VRB01KT CAVOK 02/M03 Q1014 NOSIG

VFR

0°C / -4°C

[Más]
Viento 10º variable 320º to 070º 3kt
Visibilidad >10km
Tiempo -
Nubes Clouds and Visibility OK
Presión 1014
Cambiar No Significant change
Bruto LERI 270700Z 01003KT 320V070 CAVOK 00/M04 Q1014 NOSIG

VFR

3°C / -3°C

[Más]
Viento 270º 5kt
Visibilidad >10km
Tiempo -
Nubes Clouds and Visibility OK
Presión 1014
Cambiar No Significant change
Bruto LERI 270630Z 27005KT CAVOK 03/M03 Q1014 NOSIG

VFR

1°C / -3°C

[Más]
Viento 230º 4kt
Visibilidad >10km
Tiempo -
Nubes Clouds and Visibility OK
Presión 1014
Cambiar No Significant change
Bruto LERI 270600Z 23004KT CAVOK 01/M03 Q1014 NOSIG

VFR

10°C / -1°C

[Más]
Viento 290º variable 270º to 330º 10kt
Visibilidad >10km
Tiempo -
Nubes Clouds and Visibility OK
Presión 1015
Cambiar No Significant change
Bruto LERI 261800Z 29010KT 270V330 CAVOK 10/M01 Q1015 NOSIG

VFR

11°C / -2°C

[Más]
Viento 290º 11kt
Visibilidad >10km
Tiempo -
Nubes Few Clouds 6200ft
Presión 1015
Cambiar No Significant change
Bruto LERI 261730Z 29011KT 9999 FEW062 11/M02 Q1015 NOSIG

VFR

12°C / -2°C

[Más]
Viento 300º variable 260º to 330º 12kt
Visibilidad >10km
Tiempo -
Nubes Scattered Clouds 5300ft
Presión 1015
Cambiar No Significant change
Bruto LERI 261700Z 30012KT 260V330 9999 SCT053 12/M02 Q1015 NOSIG

VFR

13°C / -2°C

[Más]
Viento 290º variable 250º to 340º 12kt
Visibilidad >10km
Tiempo -
Nubes Scattered Clouds 6100ft
Presión 1015
Cambiar No Significant change
Bruto LERI 261630Z 29012KT 250V340 9999 SCT061 13/M02 Q1015 NOSIG

VFR

13°C / -2°C

[Más]
Viento 330º variable 300º to 360º 10kt
Visibilidad >10km
Tiempo -
Nubes Scattered Clouds 5500ft
Presión 1015
Cambiar No Significant change
Bruto LERI 261600Z 33010KT 300V360 9999 SCT055 13/M02 Q1015 NOSIG

VFR

13°C / -2°C

[Más]
Viento 290º variable 250º to 330º 13kt
Visibilidad >10km
Tiempo -
Nubes Scattered Clouds 5600ft
Presión 1015
Cambiar No Significant change
Bruto LERI 261530Z 29013KT 250V330 9999 SCT056 13/M02 Q1015 NOSIG

VFR

13°C / -2°C

[Más]
Viento 280º variable 250º to 310º 15kt
Visibilidad >10km
Tiempo -
Nubes Scattered Clouds 5500ft
Presión 1015
Cambiar No Significant change
Bruto LERI 261500Z 28015KT 250V310 9999 SCT055 13/M02 Q1015 NOSIG

VFR

13°C / -2°C

[Más]
Viento 290º variable 260º to 330º 12kt
Visibilidad >10km
Tiempo -
Nubes Scattered Clouds 5400ft
Presión 1015
Cambiar No Significant change
Bruto LERI 261430Z 29012KT 260V330 9999 SCT054 13/M02 Q1015 NOSIG

VFR

13°C / -2°C

[Más]
Viento 330º variable 280º to 020º 8kt
Visibilidad >10km
Tiempo -
Nubes Scattered Clouds 5200ft
Presión 1015
Cambiar No Significant change
Bruto LERI 261400Z 33008KT 280V020 9999 SCT052 13/M02 Q1015 NOSIG

VFR

12°C / -2°C

[Más]
Viento 290º variable 240º to 330º 14kt
Visibilidad >10km
Tiempo -
Nubes Few Clouds 4800ft
Scattered Clouds 5800ft
Presión 1015
Cambiar No Significant change
Bruto LERI 261330Z 29014KT 240V330 9999 FEW048 SCT058 12/M02 Q1015 NOSIG

VFR

12°C / -2°C

[Más]
Viento 340º variable 300º to 030º 8kt
Visibilidad >10km
Tiempo -
Nubes Few Clouds 4800ft
Scattered Clouds 5700ft
Presión 1016
Cambiar No Significant change
Bruto LERI 261300Z 34008KT 300V030 9999 FEW048 SCT057 12/M02 Q1016 NOSIG

VFR

12°C / -2°C

[Más]
Viento 320º variable 260º to 350º 12kt
Visibilidad >10km
Tiempo -
Nubes Few Clouds 4500ft
Scattered Clouds 5700ft
Presión 1016
Cambiar No Significant change
Bruto LERI 261230Z 32012KT 260V350 9999 FEW045 SCT057 12/M02 Q1016 NOSIG

VFR

12°C / -2°C

[Más]
Viento 310º variable 280º to 340º 12kt
Visibilidad >10km
Tiempo -
Nubes Few Clouds 4500ft
Presión 1016
Cambiar No Significant change
Bruto LERI 261200Z 31012KT 280V340 9999 FEW045 12/M02 Q1016 NOSIG

VFR

12°C / -2°C

[Más]
Viento 320º variable 280º to 350º 9kt
Visibilidad >10km
Tiempo -
Nubes Clouds and Visibility OK
Presión 1017
Cambiar No Significant change
Bruto LERI 261130Z 32009KT 280V350 CAVOK 12/M02 Q1017 NOSIG

VFR

12°C / -2°C

[Más]
Viento 310º variable 280º to 340º 11kt
Visibilidad >10km
Tiempo -
Nubes Clouds and Visibility OK
Presión 1018
Cambiar No Significant change
Bruto LERI 261100Z 31011KT 280V340 CAVOK 12/M02 Q1018 NOSIG

TAF a Alcantarilla (LERI)

From till


Maximum Temperature 14ºC on . Minimum Temperature 5ºC on .
From till Wind 260º 6kt. Visibility 10km or more. Few Clouds 3500ft.
Becoming from till Wind 330º 10kt. Visibility 10km or more. Few Clouds 3500ft.

Bruto: TAF LERI 270500Z 2706/2806 26006KT 9999 FEW035 TX14/2714Z TN05/2806Z BECMG 2709/2712 33010KT

Radar y precipitación nowcast para Alcantarilla

llovizna
Leve
Moderado
Fuerte
Muy fuerte
Granizo

El marcador del lugar se coloca en Alcantarilla. Esta animación muestra el radar de precipitaciones para la(s) última(s) 1 hora(s). Las lloviznas o las nevadas ligeras pueden ser invisibles para el radar. La intensidad de la precipitación está codificada por colores, que van del azul claro al naranja.
Fuente de datos del radar: AEMET.

Imágenes actuales de satélite y lluvia para Alcantarilla, España

El marcador del lugar se coloca en Alcantarilla. [Más]

La imagen de satélite en tiempo real se aprovecha de la combinación de bandas de la luz visible y de la luz infrarroja. Cómo se pueden detectar cambios de temperaturas a través de la banda infrarrojo, la imagen no aparece oscura de noche. No obstante, la niebla y las nubes bajas son apenas visibles en las imágenes de infrarrojo ya que las diferencias de temperaturas entre el suelo y la niebla son muy pequeñas, por eso, son casi invisibles durante la noche. Las imágenes de satélite del Meteosat (Europa) son actualizados en tiempo real cada 5 minutos. Las imágenes del GOES-16/GOES-17 (América del Norte y América del Sur) y Himawari (Asia) son actualizadas cada 10 minutos.

La precipitación se estima a partir del radar y de los satélites. Las estimaciones de la precipitación desde los satélites son menos precisas durante la noche que durante el día. Las cruces naranjas identifican lugares donde se detectaron relámpagos (en Europa).

Copyright 2023 EUMETSAT / meteoblue. Datos de relámpagos proporcionados por nowcast.

Volver al principio